<?xml version="1.0" encoding="UTF-8" standalone="no" ?>
<gpx xmlns="http://www.topografix.com/GPX/1/1" creator="MapSource 6.15.5" version="1.1"
xmlns:xsi="http://www.w3.org/2001/XMLSchema-instance"
xsi:schemaLocation="http://www.topografix.com/GPX/1/1 http://www.topografix.com/GPX/1/1/gpx.xsd">

  <trk>
    <trkseg>
      <trkpt lat="48.115542" lon="11.285010">
       <time>2017-05-16T08:20:14Z</time>
       <course>281.8</course>
  <speed>0.6</speed>
       </trkpt>
      <trkpt lat="48.115542" lon="11.285010">
       <time>2017-05-16T08:20:14Z</time>
       <course>281.8</course>
  <speed>0.6</speed>
       </trkpt>
      <trkpt lat="48.115528" lon="11.284973">
       <time>2017-05-16T08:20:16Z</time>
       <course>281.8</course>
  <speed>0.8</speed>
       </trkpt>
      <trkpt lat="48.115473" lon="11.284977">
       <time>2017-05-16T08:20:18Z</time>
       <course>281.8</course>
  <speed>2.0</speed>
       </trkpt>
      <trkpt lat="48.115468" lon="11.284945">
       <time>2017-05-16T08:20:20Z</time>
       <course>281.8</course>
  <speed>0.7</speed>
       </trkpt>
      <trkpt lat="48.115453" lon="11.284910">
       <time>2017-05-16T08:20:22Z</time>
       <course>281.8</course>
  <speed>0.8</speed>
       </trkpt>
      <trkpt lat="48.115438" lon="11.284922">
       <time>2017-05-16T08:20:24Z</time>
       <course>281.8</course>
  <speed>0.5</speed>
       </trkpt>
      <trkpt lat="48.115435" lon="11.284933">
       <time>2017-05-16T08:20:26Z</time>
       <course>281.8</course>
  <speed>0.3</speed>
       </trkpt>
      <trkpt lat="48.115422" lon="11.284938">
       <time>2017-05-16T08:20:28Z</time>
       <course>281.8</course>
  <speed>0.1</speed>
       </trkpt>
      <trkpt lat="48.115417" lon="11.284927">
       <time>2017-05-16T08:20:30Z</time>
       <course>281.8</course>
  <speed>0.3</speed>
       </trkpt>
      <trkpt lat="48.115420" lon="11.284917">
       <time>2017-05-16T08:20:32Z</time>
       <course>281.8</course>
  <speed>0.7</speed>
       </trkpt>
      <trkpt lat="48.115458" lon="11.284872">
       <time>2017-05-16T08:20:34Z</time>
       <course>307.0</course>
  <speed>1.6</speed>
       </trkpt>
      <trkpt lat="48.115433" lon="11.284872">
       <time>2017-05-16T08:20:36Z</time>
       <course>307.0</course>
  <speed>1.1</speed>
       </trkpt>
      <trkpt lat="48.115415" lon="11.284883">
       <time>2017-05-16T08:20:38Z</time>
       <course>307.0</course>
  <speed>0.8</speed>
       </trkpt>
      <trkpt lat="48.115390" lon="11.284905">
       <time>2017-05-16T08:20:40Z</time>
       <course>307.0</course>
  <speed>0.6</speed>
       </trkpt>
      <trkpt lat="48.115342" lon="11.284947">
       <time>2017-05-16T08:20:42Z</time>
       <course>307.0</course>
  <speed>0.2</speed>
       </trkpt>
      <trkpt lat="48.115303" lon="11.284972">
       <time>2017-05-16T08:20:44Z</time>
       <course>307.0</course>
  <speed>0.5</speed>
       </trkpt>
      <trkpt lat="48.115303" lon="11.284975">
       <time>2017-05-16T08:20:46Z</time>
       <course>307.0</course>
  <speed>0.3</speed>
       </trkpt>
      <trkpt lat="48.115290" lon="11.284982">
       <time>2017-05-16T08:20:48Z</time>
       <course>307.0</course>
  <speed>0.3</speed>
       </trkpt>
      <trkpt lat="48.115268" lon="11.285012">
       <time>2017-05-16T08:20:50Z</time>
       <course>307.0</course>
  <speed>0.3</speed>
       </trkpt>
      <trkpt lat="48.115250" lon="11.285042">
       <time>2017-05-16T08:20:52Z</time>
       <course>307.0</course>
  <speed>0.2</speed>
       </trkpt>
      <trkpt lat="48.115247" lon="11.285042">
       <time>2017-05-16T08:20:54Z</time>
       <course>307.0</course>
  <speed>0.0</speed>
       </trkpt>
      <trkpt lat="48.115247" lon="11.285042">
       <time>2017-05-16T08:20:56Z</time>
       <course>307.0</course>
  <speed>0.0</speed>
       </trkpt>
      <trkpt lat="48.115247" lon="11.285042">
       <time>2017-05-16T08:20:58Z</time>
       <course>307.0</course>
  <speed>0.0</speed>
       </trkpt>
      <trkpt lat="48.115227" lon="11.285023">
       <time>2017-05-16T08:21:00Z</time>
       <course>307.0</course>
  <speed>0.1</speed>
       </trkpt>
      <trkpt lat="48.115230" lon="11.285018">
       <time>2017-05-16T08:21:02Z</time>
       <course>307.0</course>
  <speed>0.1</speed>
       </trkpt>
      <trkpt lat="48.115227" lon="11.285012">
       <time>2017-05-16T08:21:04Z</time>
       <course>307.0</course>
  <speed>0.2</speed>
       </trkpt>
      <trkpt lat="48.115227" lon="11.285012">
       <time>2017-05-16T08:21:06Z</time>
       <course>307.0</course>
  <speed>0.0</speed>
       </trkpt>
      <trkpt lat="48.115227" lon="11.285012">
       <time>2017-05-16T08:21:08Z</time>
       <course>307.0</course>
  <speed>0.0</speed>
       </trkpt>
      <trkpt lat="48.115228" lon="11.285042">
       <time>2017-05-16T08:21:10Z</time>
       <course>307.0</course>
  <speed>0.3</speed>
       </trkpt>
      <trkpt lat="48.115223" lon="11.285052">
       <time>2017-05-16T08:21:12Z</time>
       <course>307.0</course>
  <speed>0.2</speed>
       </trkpt>
      <trkpt lat="48.115222" lon="11.285057">
       <time>2017-05-16T08:21:14Z</time>
       <course>307.0</course>
  <speed>0.3</speed>
       </trkpt>
      <trkpt lat="48.115218" lon="11.285053">
       <time>2017-05-16T08:21:16Z</time>
       <course>307.0</course>
  <speed>0.3</speed>
       </trkpt>
      <trkpt lat="48.115223" lon="11.285055">
       <time>2017-05-16T08:21:18Z</time>
       <course>307.0</course>
  <speed>0.3</speed>
       </trkpt>
      <trkpt lat="48.115232" lon="11.285055">
       <time>2017-05-16T08:21:20Z</time>
       <course>307.0</course>
  <speed>0.1</speed>
       </trkpt>
      <trkpt lat="48.115232" lon="11.285055">
       <time>2017-05-16T08:21:22Z</time>
       <course>307.0</course>
  <speed>0.0</speed>
       </trkpt>
      <trkpt lat="48.115235" lon="11.285063">
       <time>2017-05-16T08:21:24Z</time>
       <course>307.0</course>
  <speed>0.6</speed>
       </trkpt>
      <trkpt lat="48.115235" lon="11.285070">
       <time>2017-05-16T08:21:26Z</time>
       <course>307.0</course>
  <speed>0.5</speed>
       </trkpt>
      <trkpt lat="48.115243" lon="11.285067">
       <time>2017-05-16T08:21:28Z</time>
       <course>307.0</course>
  <speed>0.1</speed>
       </trkpt>
      <trkpt lat="48.115257" lon="11.285067">
       <time>2017-05-16T08:21:30Z</time>
       <course>307.0</course>
  <speed>0.1</speed>
       </trkpt>
      <trkpt lat="48.115253" lon="11.285063">
       <time>2017-05-16T08:21:32Z</time>
       <course>307.0</course>
  <speed>0.1</speed>
       </trkpt>
      <trkpt lat="48.115253" lon="11.285063">
       <time>2017-05-16T08:21:34Z</time>
       <course>307.0</course>
  <speed>0.0</speed>
       </trkpt>
      <trkpt lat="48.115253" lon="11.285063">
       <time>2017-05-16T08:21:36Z</time>
       <course>307.0</course>
  <speed>0.0</speed>
       </trkpt>
      <trkpt lat="48.115253" lon="11.285063">
       <time>2017-05-16T08:21:38Z</time>
       <course>307.0</course>
  <speed>0.0</speed>
       </trkpt>
      <trkpt lat="48.115253" lon="11.285063">
       <time>2017-05-16T08:21:40Z</time>
       <course>307.0</course>
  <speed>0.0</speed>
       </trkpt>
      <trkpt lat="48.115253" lon="11.285063">
       <time>2017-05-16T08:21:42Z</time>
       <course>307.0</course>
  <speed>0.0</speed>
       </trkpt>
      <trkpt lat="48.115253" lon="11.285063">
       <time>2017-05-16T08:21:44Z</time>
       <course>307.0</course>
  <speed>0.0</speed>
       </trkpt>
      <trkpt lat="48.115253" lon="11.285063">
       <time>2017-05-16T08:21:46Z</time>
       <course>307.0</course>
  <speed>0.0</speed>
       </trkpt>
      <trkpt lat="48.115253" lon="11.285063">
       <time>2017-05-16T08:21:48Z</time>
       <course>307.0</course>
  <speed>0.0</speed>
       </trkpt>
      <trkpt lat="48.115248" lon="11.285042">
       <time>2017-05-16T08:21:50Z</time>
       <course>307.0</course>
  <speed>0.1</speed>
       </trkpt>
      <trkpt lat="48.115247" lon="11.285033">
       <time>2017-05-16T08:21:52Z</time>
       <course>307.0</course>
  <speed>0.0</speed>
       </trkpt>
      <trkpt lat="48.115252" lon="11.285030">
       <time>2017-05-16T08:21:54Z</time>
       <course>307.0</course>
  <speed>0.0</speed>
       </trkpt>
      <trkpt lat="48.115262" lon="11.285025">
       <time>2017-05-16T08:21:56Z</time>
       <course>307.0</course>
  <speed>0.7</speed>
       </trkpt>
      <trkpt lat="48.115268" lon="11.285017">
       <time>2017-05-16T08:21:58Z</time>
       <course>323.7</course>
  <speed>0.5</speed>
       </trkpt>
      <trkpt lat="48.115295" lon="11.284997">
       <time>2017-05-16T08:22:00Z</time>
       <course>331.2</course>
  <speed>1.0</speed>
       </trkpt>
      <trkpt lat="48.115298" lon="11.284985">
       <time>2017-05-16T08:22:02Z</time>
       <course>330.5</course>
  <speed>0.8</speed>
       </trkpt>
      <trkpt lat="48.115307" lon="11.284978">
       <time>2017-05-16T08:22:04Z</time>
       <course>329.3</course>
  <speed>0.6</speed>
       </trkpt>
      <trkpt lat="48.115307" lon="11.284975">
       <time>2017-05-16T08:22:06Z</time>
       <course>329.3</course>
  <speed>0.4</speed>
       </trkpt>
      <trkpt lat="48.115308" lon="11.284972">
       <time>2017-05-16T08:22:08Z</time>
       <course>329.3</course>
  <speed>0.3</speed>
       </trkpt>
      <trkpt lat="48.115302" lon="11.284975">
       <time>2017-05-16T08:22:10Z</time>
       <course>329.3</course>
  <speed>0.1</speed>
       </trkpt>
      <trkpt lat="48.115290" lon="11.284977">
       <time>2017-05-16T08:22:12Z</time>
       <course>329.3</course>
  <speed>0.1</speed>
       </trkpt>
      <trkpt lat="48.115295" lon="11.284975">
       <time>2017-05-16T08:22:14Z</time>
       <course>329.3</course>
  <speed>0.0</speed>
       </trkpt>
      <trkpt lat="48.115295" lon="11.284975">
       <time>2017-05-16T08:22:16Z</time>
       <course>329.3</course>
  <speed>0.0</speed>
       </trkpt>
      <trkpt lat="48.115310" lon="11.284972">
       <time>2017-05-16T08:22:18Z</time>
       <course>329.3</course>
  <speed>0.7</speed>
       </trkpt>
      <trkpt lat="48.115312" lon="11.284967">
       <time>2017-05-16T08:22:20Z</time>
       <course>329.3</course>
  <speed>0.2</speed>
       </trkpt>
      <trkpt lat="48.115318" lon="11.284963">
       <time>2017-05-16T08:22:22Z</time>
       <course>329.3</course>
  <speed>0.3</speed>
       </trkpt>
      <trkpt lat="48.115317" lon="11.284965">
       <time>2017-05-16T08:22:24Z</time>
       <course>329.3</course>
  <speed>0.0</speed>
       </trkpt>
      <trkpt lat="48.115317" lon="11.284965">
       <time>2017-05-16T08:22:26Z</time>
       <course>329.3</course>
  <speed>0.0</speed>
       </trkpt>
      <trkpt lat="48.115317" lon="11.284965">
       <time>2017-05-16T08:22:28Z</time>
       <course>329.3</course>
  <speed>0.0</speed>
       </trkpt>
      <trkpt lat="48.115317" lon="11.284965">
       <time>2017-05-16T08:22:30Z</time>
       <course>329.3</course>
  <speed>0.0</speed>
       </trkpt>
      <trkpt lat="48.115317" lon="11.284965">
       <time>2017-05-16T08:22:32Z</time>
       <course>329.3</course>
  <speed>0.0</speed>
       </trkpt>
      <trkpt lat="48.115317" lon="11.284965">
       <time>2017-05-16T08:22:34Z</time>
       <course>329.3</course>
  <speed>0.0</speed>
       </trkpt>
      <trkpt lat="48.115317" lon="11.284965">
       <time>2017-05-16T08:22:36Z</time>
       <course>329.3</course>
  <speed>0.0</speed>
       </trkpt>
      <trkpt lat="48.115317" lon="11.284965">
       <time>2017-05-16T08:22:38Z</time>
       <course>329.3</course>
  <speed>0.0</speed>
       </trkpt>
      <trkpt lat="48.115317" lon="11.284965">
       <time>2017-05-16T08:22:40Z</time>
       <course>329.3</course>
  <speed>0.0</speed>
       </trkpt>
      <trkpt lat="48.115317" lon="11.284965">
       <time>2017-05-16T08:22:42Z</time>
       <course>329.3</course>
  <speed>0.0</speed>
       </trkpt>
      <trkpt lat="48.115317" lon="11.284965">
       <time>2017-05-16T08:22:44Z</time>
       <course>329.3</course>
  <speed>0.0</speed>
       </trkpt>
      <trkpt lat="48.115317" lon="11.284965">
       <time>2017-05-16T08:22:46Z</time>
       <course>329.3</course>
  <speed>0.0</speed>
       </trkpt>
      <trkpt lat="48.115307" lon="11.284985">
       <time>2017-05-16T08:22:48Z</time>
       <course>190.2</course>
  <speed>0.9</speed>
       </trkpt>
      <trkpt lat="48.115293" lon="11.284990">
       <time>2017-05-16T08:22:50Z</time>
       <course>173.6</course>
  <speed>0.6</speed>
       </trkpt>
    </trkseg>
 </trk>
</gpx>